Bakerville, Wisconsin
Current Conditions -  °F | °C
As of 8:54 PM on Monday 22 Dec 2014 (Local Time) from KMFI Reporting Station
Light Snow Light Snow  
Wind Chill: 23°   Ceiling: 600
Heat Index: 33°   Visibility: 1.5mi
Dew Point: 31°   Wind: 14mph
Humidity: 92%   Direction: 80°E
Pressure: 29.66"   Gusts: NA
Location:  44.6413°N, 90.1945°W
Report Text: KMFI 230254Z AUTO 08012KT 1 1/2SM -SN BR OVC006 01/M01 A2966 RMK AO2 CIG 004V010 SLP057 P0000 60000 T00061006 58006
Loading
Personal Weather Stations






























Interactive Weather Map New forecast layout! Learn more

10-Day Weather Forecast

Advertisements
Track Severe Weather on mobile